sensor_id;sensor_type;location;lat;lon;timestamp;P1;durP1;ratioP1;P2;durP2;ratioP2
55053;SDS011;40954;45.668;18.980;2023-08-06T00:01:16;6.57;;;3.28;;
55053;SDS011;40954;45.668;18.980;2023-08-06T00:03:44;5.10;;;4.00;;
55053;SDS011;40954;45.668;18.980;2023-08-06T00:06:10;3.10;;;2.90;;
55053;SDS011;40954;45.668;18.980;2023-08-06T00:08:36;3.23;;;2.90;;
55053;SDS011;40954;45.668;18.980;2023-08-06T00:11:02;3.30;;;3.03;;
55053;SDS011;40954;45.668;18.980;2023-08-06T00:13:28;3.57;;;3.27;;
55053;SDS011;40954;45.668;18.980;2023-08-06T00:15:54;3.75;;;3.45;;
55053;SDS011;40954;45.668;18.980;2023-08-06T00:18:20;3.40;;;2.92;;
55053;SDS011;40954;45.668;18.980;2023-08-06T00:20:46;3.75;;;3.45;;
55053;SDS011;40954;45.668;18.980;2023-08-06T00:23:12;4.10;;;3.30;;
55053;SDS011;40954;45.668;18.980;2023-08-06T00:25:38;4.30;;;3.83;;
55053;SDS011;40954;45.668;18.980;2023-08-06T00:28:05;4.60;;;3.90;;
55053;SDS011;40954;45.668;18.980;2023-08-06T00:30:31;5.47;;;4.97;;
55053;SDS011;40954;45.668;18.980;2023-08-06T00:32:57;4.50;;;4.10;;
55053;SDS011;40954;45.668;18.980;2023-08-06T00:35:23;2.77;;;2.50;;
55053;SDS011;40954;45.668;18.980;2023-08-06T00:37:49;5.28;;;3.63;;
55053;SDS011;40954;45.668;18.980;2023-08-06T00:40:15;6.15;;;5.50;;
55053;SDS011;40954;45.668;18.980;2023-08-06T00:42:41;5.80;;;5.20;;
55053;SDS011;40954;45.668;18.980;2023-08-06T00:45:10;5.97;;;5.38;;
55053;SDS011;40954;45.668;18.980;2023-08-06T00:47:36;5.68;;;4.82;;
55053;SDS011;40954;45.668;18.980;2023-08-06T00:50:04;5.82;;;5.22;;
55053;SDS011;40954;45.668;18.980;2023-08-06T00:52:32;7.47;;;5.25;;
55053;SDS011;40954;45.668;18.980;2023-08-06T00:54:59;6.43;;;5.83;;
55053;SDS011;40954;45.668;18.980;2023-08-06T00:57:25;5.80;;;5.20;;
55053;SDS011;40954;45.668;18.980;2023-08-06T00:59:52;8.30;;;6.00;;
55053;SDS011;40954;45.668;18.980;2023-08-06T01:02:19;5.93;;;5.18;;
55053;SDS011;40954;45.668;18.980;2023-08-06T01:04:45;7.35;;;6.50;;
55053;SDS011;40954;45.668;18.980;2023-08-06T01:15:41;6.97;;;4.90;;
55053;SDS011;40954;45.668;18.980;2023-08-06T01:18:07;6.72;;;5.00;;
55053;SDS011;40954;45.668;18.980;2023-08-06T01:20:33;8.07;;;6.35;;
55053;SDS011;40954;45.668;18.980;2023-08-06T01:22:59;7.90;;;6.68;;
55053;SDS011;40954;45.668;18.980;2023-08-06T01:25:34;6.80;;;6.20;;
55053;SDS011;40954;45.668;18.980;2023-08-06T01:28:05;9.23;;;8.40;;
55053;SDS011;40954;45.668;18.980;2023-08-06T01:30:32;9.50;;;7.20;;
55053;SDS011;40954;45.668;18.980;2023-08-06T01:33:02;9.80;;;8.80;;
55053;SDS011;40954;45.668;18.980;2023-08-06T01:35:30;7.72;;;7.03;;
55053;SDS011;40954;45.668;18.980;2023-08-06T01:37:56;8.32;;;7.45;;
55053;SDS011;40954;45.668;18.980;2023-08-06T01:40:22;7.60;;;6.80;;
55053;SDS011;40954;45.668;18.980;2023-08-06T01:42:48;5.90;;;5.30;;
55053;SDS011;40954;45.668;18.980;2023-08-06T01:45:14;7.30;;;6.60;;
55053;SDS011;40954;45.668;18.980;2023-08-06T01:47:40;8.02;;;6.35;;
55053;SDS011;40954;45.668;18.980;2023-08-06T01:50:06;7.40;;;5.50;;
55053;SDS011;40954;45.668;18.980;2023-08-06T01:52:32;6.43;;;5.78;;
55053;SDS011;40954;45.668;18.980;2023-08-06T01:54:58;6.50;;;5.70;;
55053;SDS011;40954;45.668;18.980;2023-08-06T01:57:24;5.55;;;4.38;;
55053;SDS011;40954;45.668;18.980;2023-08-06T01:59:51;6.07;;;4.95;;
55053;SDS011;40954;45.668;18.980;2023-08-06T02:02:17;6.90;;;5.30;;
55053;SDS011;40954;45.668;18.980;2023-08-06T02:04:43;6.32;;;5.35;;
55053;SDS011;40954;45.668;18.980;2023-08-06T02:07:09;7.72;;;5.40;;
55053;SDS011;40954;45.668;18.980;2023-08-06T02:09:35;5.13;;;4.70;;
55053;SDS011;40954;45.668;18.980;2023-08-06T02:12:01;5.53;;;4.72;;
55053;SDS011;40954;45.668;18.980;2023-08-06T02:14:27;5.10;;;4.57;;
55053;SDS011;40954;45.668;18.980;2023-08-06T02:16:53;5.82;;;4.97;;
55053;SDS011;40954;45.668;18.980;2023-08-06T02:19:19;7.13;;;5.50;;
55053;SDS011;40954;45.668;18.980;2023-08-06T02:21:45;7.00;;;5.50;;
55053;SDS011;40954;45.668;18.980;2023-08-06T02:24:11;5.22;;;4.72;;
55053;SDS011;40954;45.668;18.980;2023-08-06T02:26:37;8.30;;;5.50;;
55053;SDS011;40954;45.668;18.980;2023-08-06T02:29:03;5.80;;;5.30;;
55053;SDS011;40954;45.668;18.980;2023-08-06T02:31:29;4.72;;;4.00;;
55053;SDS011;40954;45.668;18.980;2023-08-06T02:33:55;6.35;;;5.40;;
55053;SDS011;40954;45.668;18.980;2023-08-06T02:36:23;5.17;;;4.67;;
55053;SDS011;40954;45.668;18.980;2023-08-06T02:38:49;6.10;;;5.30;;
55053;SDS011;40954;45.668;18.980;2023-08-06T02:41:15;5.75;;;5.22;;
55053;SDS011;40954;45.668;18.980;2023-08-06T02:43:41;5.15;;;4.63;;
55053;SDS011;40954;45.668;18.980;2023-08-06T02:46:07;7.15;;;5.40;;
55053;SDS011;40954;45.668;18.980;2023-08-06T02:48:33;7.03;;;6.28;;
55053;SDS011;40954;45.668;18.980;2023-08-06T02:51:00;6.50;;;4.65;;
55053;SDS011;40954;45.668;18.980;2023-08-06T02:53:26;7.40;;;5.75;;
55053;SDS011;40954;45.668;18.980;2023-08-06T02:55:52;6.70;;;4.60;;
55053;SDS011;40954;45.668;18.980;2023-08-06T02:58:18;7.47;;;6.10;;
55053;SDS011;40954;45.668;18.980;2023-08-06T03:01:08;7.32;;;6.07;;
55053;SDS011;40954;45.668;18.980;2023-08-06T03:03:33;5.60;;;5.10;;
55053;SDS011;40954;45.668;18.980;2023-08-06T03:06:00;5.30;;;4.80;;
55053;SDS011;40954;45.668;18.980;2023-08-06T03:08:26;8.50;;;6.30;;
55053;SDS011;40954;45.668;18.980;2023-08-06T03:10:52;6.00;;;5.25;;
55053;SDS011;40954;45.668;18.980;2023-08-06T03:13:19;6.75;;;6.13;;
55053;SDS011;40954;45.668;18.980;2023-08-06T03:15:51;8.27;;;4.78;;
55053;SDS011;40954;45.668;18.980;2023-08-06T03:18:18;6.35;;;5.75;;
55053;SDS011;40954;45.668;18.980;2023-08-06T03:20:44;8.32;;;5.75;;
55053;SDS011;40954;45.668;18.980;2023-08-06T03:23:10;5.50;;;4.75;;
55053;SDS011;40954;45.668;18.980;2023-08-06T03:25:36;5.57;;;5.13;;
55053;SDS011;40954;45.668;18.980;2023-08-06T03:28:02;7.65;;;5.63;;
55053;SDS011;40954;45.668;18.980;2023-08-06T03:30:28;6.95;;;5.20;;
55053;SDS011;40954;45.668;18.980;2023-08-06T03:32:55;6.03;;;5.43;;
55053;SDS011;40954;45.668;18.980;2023-08-06T03:35:21;5.97;;;5.38;;
55053;SDS011;40954;45.668;18.980;2023-08-06T03:37:47;6.57;;;5.88;;
55053;SDS011;40954;45.668;18.980;2023-08-06T03:40:14;4.93;;;3.60;;
55053;SDS011;40954;45.668;18.980;2023-08-06T03:42:40;6.80;;;6.10;;
55053;SDS011;40954;45.668;18.980;2023-08-06T03:45:07;6.75;;;5.85;;
55053;SDS011;40954;45.668;18.980;2023-08-06T03:47:33;5.65;;;5.07;;
55053;SDS011;40954;45.668;18.980;2023-08-06T03:49:59;6.90;;;4.63;;
55053;SDS011;40954;45.668;18.980;2023-08-06T03:52:25;8.13;;;6.18;;
55053;SDS011;40954;45.668;18.980;2023-08-06T03:54:51;7.40;;;6.63;;
55053;SDS011;40954;45.668;18.980;2023-08-06T03:57:18;7.35;;;6.22;;
55053;SDS011;40954;45.668;18.980;2023-08-06T03:59:44;7.35;;;6.65;;
55053;SDS011;40954;45.668;18.980;2023-08-06T04:02:10;6.45;;;5.80;;
55053;SDS011;40954;45.668;18.980;2023-08-06T04:04:36;5.15;;;4.70;;
55053;SDS011;40954;45.668;18.980;2023-08-06T04:07:02;6.05;;;4.63;;
55053;SDS011;40954;45.668;18.980;2023-08-06T04:09:28;6.82;;;5.50;;
55053;SDS011;40954;45.668;18.980;2023-08-06T04:11:54;9.60;;;6.95;;
55053;SDS011;40954;45.668;18.980;2023-08-06T04:14:21;7.95;;;6.68;;
55053;SDS011;40954;45.668;18.980;2023-08-06T04:16:47;7.45;;;6.45;;
55053;SDS011;40954;45.668;18.980;2023-08-06T04:19:13;8.45;;;7.25;;
55053;SDS011;40954;45.668;18.980;2023-08-06T04:21:39;10.30;;;7.10;;
55053;SDS011;40954;45.668;18.980;2023-08-06T04:24:05;7.95;;;6.50;;
55053;SDS011;40954;45.668;18.980;2023-08-06T04:26:32;6.97;;;6.18;;
55053;SDS011;40954;45.668;18.980;2023-08-06T04:28:58;6.53;;;4.80;;
55053;SDS011;40954;45.668;18.980;2023-08-06T04:31:24;5.93;;;4.90;;
55053;SDS011;40954;45.668;18.980;2023-08-06T04:33:50;6.68;;;5.53;;
55053;SDS011;40954;45.668;18.980;2023-08-06T04:36:16;4.78;;;4.25;;
55053;SDS011;40954;45.668;18.980;2023-08-06T04:38:42;7.30;;;4.85;;
55053;SDS011;40954;45.668;18.980;2023-08-06T04:41:10;7.43;;;4.95;;
55053;SDS011;40954;45.668;18.980;2023-08-06T04:43:36;7.73;;;4.87;;
55053;SDS011;40954;45.668;18.980;2023-08-06T04:46:02;6.07;;;3.63;;
55053;SDS011;40954;45.668;18.980;2023-08-06T04:48:28;5.97;;;4.60;;
55053;SDS011;40954;45.668;18.980;2023-08-06T04:50:54;5.23;;;4.73;;
55053;SDS011;40954;45.668;18.980;2023-08-06T04:53:20;5.03;;;4.53;;
55053;SDS011;40954;45.668;18.980;2023-08-06T04:55:47;4.60;;;4.17;;
55053;SDS011;40954;45.668;18.980;2023-08-06T04:58:13;5.57;;;4.55;;
55053;SDS011;40954;45.668;18.980;2023-08-06T05:00:39;4.63;;;3.92;;
55053;SDS011;40954;45.668;18.980;2023-08-06T05:03:05;4.85;;;4.35;;
55053;SDS011;40954;45.668;18.980;2023-08-06T05:05:31;4.13;;;3.30;;
55053;SDS011;40954;45.668;18.980;2023-08-06T05:07:58;4.63;;;3.13;;
55053;SDS011;40954;45.668;18.980;2023-08-06T05:10:24;3.30;;;3.00;;
55053;SDS011;40954;45.668;18.980;2023-08-06T05:12:51;4.20;;;3.10;;
55053;SDS011;40954;45.668;18.980;2023-08-06T05:15:17;5.43;;;4.10;;
55053;SDS011;40954;45.668;18.980;2023-08-06T05:17:43;4.30;;;3.70;;
55053;SDS011;40954;45.668;18.980;2023-08-06T05:20:09;5.30;;;3.07;;
55053;SDS011;40954;45.668;18.980;2023-08-06T05:22:35;7.15;;;3.20;;
55053;SDS011;40954;45.668;18.980;2023-08-06T05:25:01;3.83;;;3.53;;
55053;SDS011;40954;45.668;18.980;2023-08-06T05:27:27;4.28;;;3.88;;
55053;SDS011;40954;45.668;18.980;2023-08-06T05:29:56;3.72;;;3.42;;
55053;SDS011;40954;45.668;18.980;2023-08-06T05:32:23;5.32;;;3.30;;
55053;SDS011;40954;45.668;18.980;2023-08-06T05:34:51;4.80;;;2.70;;
55053;SDS011;40954;45.668;18.980;2023-08-06T05:37:18;5.28;;;3.25;;
55053;SDS011;40954;45.668;18.980;2023-08-06T05:39:44;3.33;;;3.03;;
55053;SDS011;40954;45.668;18.980;2023-08-06T05:42:10;4.25;;;2.70;;
55053;SDS011;40954;45.668;18.980;2023-08-06T05:44:36;5.13;;;2.95;;
55053;SDS011;40954;45.668;18.980;2023-08-06T05:47:02;2.75;;;2.30;;
55053;SDS011;40954;45.668;18.980;2023-08-06T05:49:28;4.72;;;2.75;;
55053;SDS011;40954;45.668;18.980;2023-08-06T05:51:54;2.85;;;2.65;;
55053;SDS011;40954;45.668;18.980;2023-08-06T05:54:21;2.85;;;2.50;;
55053;SDS011;40954;45.668;18.980;2023-08-06T05:56:47;2.40;;;2.20;;
55053;SDS011;40954;45.668;18.980;2023-08-06T05:59:13;3.55;;;2.50;;
55053;SDS011;40954;45.668;18.980;2023-08-06T06:01:39;2.83;;;2.35;;
55053;SDS011;40954;45.668;18.980;2023-08-06T06:04:05;3.20;;;2.37;;
55053;SDS011;40954;45.668;18.980;2023-08-06T06:06:31;5.23;;;2.50;;
55053;SDS011;40954;45.668;18.980;2023-08-06T06:08:57;3.03;;;2.73;;
55053;SDS011;40954;45.668;18.980;2023-08-06T06:11:24;2.45;;;2.25;;
55053;SDS011;40954;45.668;18.980;2023-08-06T06:13:50;2.90;;;2.50;;
55053;SDS011;40954;45.668;18.980;2023-08-06T06:16:16;4.00;;;2.45;;
55053;SDS011;40954;45.668;18.980;2023-08-06T06:18:42;3.35;;;2.75;;
55053;SDS011;40954;45.668;18.980;2023-08-06T06:21:09;5.60;;;2.92;;
55053;SDS011;40954;45.668;18.980;2023-08-06T06:23:36;3.45;;;2.58;;
55053;SDS011;40954;45.668;18.980;2023-08-06T06:26:02;2.70;;;2.42;;
55053;SDS011;40954;45.668;18.980;2023-08-06T06:28:28;3.42;;;2.17;;
55053;SDS011;40954;45.668;18.980;2023-08-06T06:30:54;4.25;;;2.80;;
55053;SDS011;40954;45.668;18.980;2023-08-06T06:33:25;3.75;;;3.25;;
55053;SDS011;40954;45.668;18.980;2023-08-06T06:35:51;4.53;;;3.13;;
55053;SDS011;40954;45.668;18.980;2023-08-06T06:38:17;2.80;;;2.20;;
55053;SDS011;40954;45.668;18.980;2023-08-06T06:40:43;4.28;;;2.40;;
55053;SDS011;40954;45.668;18.980;2023-08-06T06:43:09;3.92;;;2.20;;
55053;SDS011;40954;45.668;18.980;2023-08-06T06:45:35;4.20;;;2.80;;
55053;SDS011;40954;45.668;18.980;2023-08-06T06:48:01;2.65;;;2.20;;
55053;SDS011;40954;45.668;18.980;2023-08-06T06:50:27;4.10;;;2.20;;
55053;SDS011;40954;45.668;18.980;2023-08-06T06:52:53;2.10;;;1.90;;
55053;SDS011;40954;45.668;18.980;2023-08-06T06:55:19;2.83;;;2.63;;
55053;SDS011;40954;45.668;18.980;2023-08-06T06:57:45;2.50;;;2.30;;
55053;SDS011;40954;45.668;18.980;2023-08-06T07:00:12;3.88;;;2.45;;
55053;SDS011;40954;45.668;18.980;2023-08-06T07:02:38;2.40;;;2.20;;
55053;SDS011;40954;45.668;18.980;2023-08-06T07:05:04;5.30;;;2.20;;
55053;SDS011;40954;45.668;18.980;2023-08-06T07:07:32;2.95;;;1.90;;
55053;SDS011;40954;45.668;18.980;2023-08-06T07:09:58;1.98;;;1.50;;
55053;SDS011;40954;45.668;18.980;2023-08-06T07:12:24;3.05;;;1.67;;
55053;SDS011;40954;45.668;18.980;2023-08-06T07:14:50;3.58;;;1.75;;
55053;SDS011;40954;45.668;18.980;2023-08-06T07:17:16;2.10;;;1.30;;
55053;SDS011;40954;45.668;18.980;2023-08-06T07:19:42;2.42;;;1.45;;
55053;SDS011;40954;45.668;18.980;2023-08-06T07:22:08;2.42;;;1.20;;
55053;SDS011;40954;45.668;18.980;2023-08-06T07:24:34;1.27;;;1.17;;
55053;SDS011;40954;45.668;18.980;2023-08-06T07:27:00;2.67;;;1.30;;
55053;SDS011;40954;45.668;18.980;2023-08-06T07:29:26;3.22;;;1.73;;
55053;SDS011;40954;45.668;18.980;2023-08-06T07:31:52;4.25;;;1.13;;
55053;SDS011;40954;45.668;18.980;2023-08-06T07:34:20;1.80;;;1.40;;
55053;SDS011;40954;45.668;18.980;2023-08-06T07:36:46;1.33;;;1.23;;
55053;SDS011;40954;45.668;18.980;2023-08-06T07:39:12;1.40;;;1.30;;
55053;SDS011;40954;45.668;18.980;2023-08-06T07:41:38;1.50;;;1.08;;
55053;SDS011;40954;45.668;18.980;2023-08-06T07:44:06;4.00;;;2.15;;
55053;SDS011;40954;45.668;18.980;2023-08-06T07:46:32;2.50;;;1.10;;
55053;SDS011;40954;45.668;18.980;2023-08-06T07:48:58;4.18;;;1.20;;
55053;SDS011;40954;45.668;18.980;2023-08-06T07:51:24;1.98;;;1.20;;
55053;SDS011;40954;45.668;18.980;2023-08-06T07:53:50;1.25;;;1.05;;
55053;SDS011;40954;45.668;18.980;2023-08-06T07:56:16;1.65;;;1.50;;
55053;SDS011;40954;45.668;18.980;2023-08-06T07:58:42;2.88;;;1.75;;
55053;SDS011;40954;45.668;18.980;2023-08-06T08:01:09;2.63;;;1.77;;
55053;SDS011;40954;45.668;18.980;2023-08-06T08:03:35;1.88;;;1.40;;
55053;SDS011;40954;45.668;18.980;2023-08-06T08:06:01;1.60;;;0.93;;
55053;SDS011;40954;45.668;18.980;2023-08-06T08:08:27;1.25;;;1.15;;
55053;SDS011;40954;45.668;18.980;2023-08-06T08:10:53;2.53;;;0.90;;
55053;SDS011;40954;45.668;18.980;2023-08-06T08:13:20;2.33;;;1.08;;
55053;SDS011;40954;45.668;18.980;2023-08-06T08:15:46;2.38;;;1.80;;
55053;SDS011;40954;45.668;18.980;2023-08-06T08:18:12;4.43;;;1.67;;
55053;SDS011;40954;45.668;18.980;2023-08-06T08:20:38;1.92;;;0.98;;
55053;SDS011;40954;45.668;18.980;2023-08-06T08:23:04;2.40;;;0.80;;
55053;SDS011;40954;45.668;18.980;2023-08-06T08:25:31;3.43;;;1.23;;
55053;SDS011;40954;45.668;18.980;2023-08-06T08:27:57;1.60;;;0.68;;
55053;SDS011;40954;45.668;18.980;2023-08-06T08:30:23;1.92;;;1.50;;
55053;SDS011;40954;45.668;18.980;2023-08-06T08:32:50;3.00;;;2.05;;
55053;SDS011;40954;45.668;18.980;2023-08-06T08:35:16;2.22;;;1.15;;
55053;SDS011;40954;45.668;18.980;2023-08-06T08:37:42;1.75;;;0.60;;
55053;SDS011;40954;45.668;18.980;2023-08-06T08:40:09;3.40;;;0.93;;
55053;SDS011;40954;45.668;18.980;2023-08-06T08:42:36;0.73;;;0.73;;
55053;SDS011;40954;45.668;18.980;2023-08-06T08:45:04;1.45;;;0.82;;
55053;SDS011;40954;45.668;18.980;2023-08-06T08:47:30;1.92;;;1.65;;
55053;SDS011;40954;45.668;18.980;2023-08-06T08:49:56;3.00;;;1.05;;
55053;SDS011;40954;45.668;18.980;2023-08-06T08:52:23;0.57;;;0.57;;
55053;SDS011;40954;45.668;18.980;2023-08-06T08:54:50;0.70;;;0.70;;
55053;SDS011;40954;45.668;18.980;2023-08-06T08:57:17;2.05;;;0.80;;
55053;SDS011;40954;45.668;18.980;2023-08-06T08:59:43;1.88;;;0.65;;
55053;SDS011;40954;45.668;18.980;2023-08-06T09:02:12;0.77;;;0.55;;
55053;SDS011;40954;45.668;18.980;2023-08-06T09:04:39;1.48;;;0.70;;
55053;SDS011;40954;45.668;18.980;2023-08-06T09:07:05;0.80;;;0.70;;
55053;SDS011;40954;45.668;18.980;2023-08-06T09:09:34;0.90;;;0.77;;
55053;SDS011;40954;45.668;18.980;2023-08-06T09:12:09;1.30;;;0.52;;
55053;SDS011;40954;45.668;18.980;2023-08-06T09:14:37;2.22;;;1.08;;
55053;SDS011;40954;45.668;18.980;2023-08-06T09:17:03;0.80;;;0.80;;
55053;SDS011;40954;45.668;18.980;2023-08-06T09:19:31;6.43;;;1.08;;
55053;SDS011;40954;45.668;18.980;2023-08-06T09:21:57;3.10;;;2.80;;
55053;SDS011;40954;45.668;18.980;2023-08-06T09:24:23;4.63;;;1.75;;
55053;SDS011;40954;45.668;18.980;2023-08-06T09:26:49;3.33;;;3.03;;
55053;SDS011;40954;45.668;18.980;2023-08-06T09:29:15;3.75;;;1.77;;
55053;SDS011;40954;45.668;18.980;2023-08-06T09:31:42;1.40;;;0.63;;
55053;SDS011;40954;45.668;18.980;2023-08-06T09:36:50;2.85;;;2.30;;
55053;SDS011;40954;45.668;18.980;2023-08-06T09:39:17;3.95;;;1.77;;
55053;SDS011;40954;45.668;18.980;2023-08-06T09:41:43;3.05;;;1.45;;
55053;SDS011;40954;45.668;18.980;2023-08-06T09:44:16;9.80;;;1.90;;
55053;SDS011;40954;45.668;18.980;2023-08-06T09:46:50;3.58;;;1.90;;
55053;SDS011;40954;45.668;18.980;2023-08-06T09:49:17;2.97;;;1.65;;
55053;SDS011;40954;45.668;18.980;2023-08-06T09:51:43;4.90;;;1.45;;
55053;SDS011;40954;45.668;18.980;2023-08-06T09:54:11;4.83;;;1.13;;
55053;SDS011;40954;45.668;18.980;2023-08-06T09:56:38;2.28;;;0.70;;
55053;SDS011;40954;45.668;18.980;2023-08-06T09:59:04;2.75;;;1.02;;
55053;SDS011;40954;45.668;18.980;2023-08-06T10:01:32;3.90;;;1.25;;
55053;SDS011;40954;45.668;18.980;2023-08-06T10:03:58;2.17;;;0.90;;
55053;SDS011;40954;45.668;18.980;2023-08-06T10:06:25;2.70;;;1.20;;
55053;SDS011;40954;45.668;18.980;2023-08-06T10:08:52;4.07;;;1.30;;
55053;SDS011;40954;45.668;18.980;2023-08-06T10:11:18;4.82;;;1.50;;
55053;SDS011;40954;45.668;18.980;2023-08-06T10:13:47;4.43;;;1.38;;
55053;SDS011;40954;45.668;18.980;2023-08-06T10:16:14;4.82;;;1.73;;
55053;SDS011;40954;45.668;18.980;2023-08-06T10:18:40;6.47;;;1.10;;
55053;SDS011;40954;45.668;18.980;2023-08-06T10:21:10;2.27;;;1.03;;
55053;SDS011;40954;45.668;18.980;2023-08-06T10:23:36;1.77;;;1.50;;
55053;SDS011;40954;45.668;18.980;2023-08-06T10:26:03;2.75;;;2.10;;
55053;SDS011;40954;45.668;18.980;2023-08-06T10:28:38;2.35;;;1.52;;
55053;SDS011;40954;45.668;18.980;2023-08-06T10:31:05;4.43;;;3.13;;
55053;SDS011;40954;45.668;18.980;2023-08-06T10:33:47;2.95;;;1.65;;
55053;SDS011;40954;45.668;18.980;2023-08-06T10:36:16;8.10;;;2.30;;
55053;SDS011;40954;45.668;18.980;2023-08-06T10:38:46;3.35;;;2.45;;
55053;SDS011;40954;45.668;18.980;2023-08-06T10:41:17;4.05;;;2.60;;
55053;SDS011;40954;45.668;18.980;2023-08-06T10:43:45;12.05;;;2.20;;
55053;SDS011;40954;45.668;18.980;2023-08-06T10:46:28;6.30;;;1.23;;
55053;SDS011;40954;45.668;18.980;2023-08-06T10:48:54;4.90;;;1.83;;
55053;SDS011;40954;45.668;18.980;2023-08-06T10:51:21;2.60;;;0.90;;
55053;SDS011;40954;45.668;18.980;2023-08-06T10:53:48;3.95;;;1.75;;
55053;SDS011;40954;45.668;18.980;2023-08-06T10:56:19;2.05;;;0.57;;
55053;SDS011;40954;45.668;18.980;2023-08-06T10:58:47;2.03;;;1.00;;
55053;SDS011;40954;45.668;18.980;2023-08-06T11:01:13;6.82;;;2.53;;
55053;SDS011;40954;45.668;18.980;2023-08-06T11:03:42;1.30;;;0.82;;
55053;SDS011;40954;45.668;18.980;2023-08-06T11:06:08;4.72;;;2.33;;
55053;SDS011;40954;45.668;18.980;2023-08-06T11:08:35;2.10;;;1.70;;
55053;SDS011;40954;45.668;18.980;2023-08-06T11:11:08;3.90;;;1.20;;
55053;SDS011;40954;45.668;18.980;2023-08-06T11:13:36;4.68;;;1.25;;
55053;SDS011;40954;45.668;18.980;2023-08-06T11:16:05;2.60;;;1.00;;
55053;SDS011;40954;45.668;18.980;2023-08-06T11:18:32;1.33;;;1.05;;
55053;SDS011;40954;45.668;18.980;2023-08-06T11:20:59;3.22;;;0.95;;
55053;SDS011;40954;45.668;18.980;2023-08-06T11:23:28;0.80;;;0.80;;
55053;SDS011;40954;45.668;18.980;2023-08-06T11:25:55;2.70;;;0.80;;
55053;SDS011;40954;45.668;18.980;2023-08-06T11:28:21;8.23;;;1.52;;
55053;SDS011;40954;45.668;18.980;2023-08-06T11:30:48;1.95;;;1.15;;
55053;SDS011;40954;45.668;18.980;2023-08-06T11:33:14;5.60;;;1.92;;
55053;SDS011;40954;45.668;18.980;2023-08-06T11:35:42;1.60;;;1.45;;
55053;SDS011;40954;45.668;18.980;2023-08-06T11:38:08;1.30;;;1.27;;
55053;SDS011;40954;45.668;18.980;2023-08-06T11:40:35;0.80;;;0.80;;
55053;SDS011;40954;45.668;18.980;2023-08-06T11:43:01;0.98;;;0.70;;
55053;SDS011;40954;45.668;18.980;2023-08-06T11:45:28;4.78;;;1.30;;
55053;SDS011;40954;45.668;18.980;2023-08-06T11:47:54;0.73;;;0.73;;
55053;SDS011;40954;45.668;18.980;2023-08-06T11:50:24;1.98;;;1.02;;
55053;SDS011;40954;45.668;18.980;2023-08-06T11:52:57;2.05;;;0.63;;
55053;SDS011;40954;45.668;18.980;2023-08-06T11:55:24;3.85;;;1.23;;
55053;SDS011;40954;45.668;18.980;2023-08-06T11:57:57;0.88;;;0.88;;
55053;SDS011;40954;45.668;18.980;2023-08-06T12:00:24;4.53;;;1.30;;
55053;SDS011;40954;45.668;18.980;2023-08-06T12:05:21;0.57;;;0.57;;
55053;SDS011;40954;45.668;18.980;2023-08-06T12:07:55;0.70;;;0.70;;
55053;SDS011;40954;45.668;18.980;2023-08-06T12:10:22;1.53;;;0.70;;
55053;SDS011;40954;45.668;18.980;2023-08-06T12:12:48;1.10;;;1.08;;
55053;SDS011;40954;45.668;18.980;2023-08-06T12:15:15;1.52;;;0.80;;
55053;SDS011;40954;45.668;18.980;2023-08-06T12:17:41;1.05;;;0.70;;
55053;SDS011;40954;45.668;18.980;2023-08-06T12:20:08;1.02;;;0.93;;
55053;SDS011;40954;45.668;18.980;2023-08-06T12:22:34;0.70;;;0.70;;
55053;SDS011;40954;45.668;18.980;2023-08-06T12:25:01;2.88;;;0.70;;
55053;SDS011;40954;45.668;18.980;2023-08-06T12:27:35;0.90;;;0.75;;
55053;SDS011;40954;45.668;18.980;2023-08-06T12:30:02;1.77;;;0.90;;
55053;SDS011;40954;45.668;18.980;2023-08-06T12:32:28;0.60;;;0.55;;
55053;SDS011;40954;45.668;18.980;2023-08-06T12:34:55;1.40;;;0.70;;
55053;SDS011;40954;45.668;18.980;2023-08-06T12:37:21;0.93;;;0.60;;
55053;SDS011;40954;45.668;18.980;2023-08-06T12:39:48;2.30;;;0.73;;
55053;SDS011;40954;45.668;18.980;2023-08-06T12:42:14;6.95;;;0.93;;
55053;SDS011;40954;45.668;18.980;2023-08-06T12:44:40;9.50;;;1.90;;
55053;SDS011;40954;45.668;18.980;2023-08-06T12:47:07;7.72;;;1.35;;
55053;SDS011;40954;45.668;18.980;2023-08-06T12:49:33;5.13;;;0.90;;
55053;SDS011;40954;45.668;18.980;2023-08-06T12:51:59;0.95;;;0.90;;
55053;SDS011;40954;45.668;18.980;2023-08-06T12:54:25;2.20;;;1.05;;
55053;SDS011;40954;45.668;18.980;2023-08-06T12:56:52;1.73;;;0.90;;
55053;SDS011;40954;45.668;18.980;2023-08-06T12:59:18;1.75;;;0.73;;
55053;SDS011;40954;45.668;18.980;2023-08-06T13:01:44;1.33;;;0.77;;
55053;SDS011;40954;45.668;18.980;2023-08-06T13:04:11;1.90;;;1.08;;
55053;SDS011;40954;45.668;18.980;2023-08-06T13:06:37;2.85;;;0.80;;
55053;SDS011;40954;45.668;18.980;2023-08-06T13:09:08;1.08;;;0.60;;
55053;SDS011;40954;45.668;18.980;2023-08-06T13:11:34;1.17;;;0.70;;
55053;SDS011;40954;45.668;18.980;2023-08-06T13:14:04;2.20;;;1.48;;
55053;SDS011;40954;45.668;18.980;2023-08-06T13:16:31;1.88;;;1.00;;
55053;SDS011;40954;45.668;18.980;2023-08-06T13:18:57;1.55;;;1.20;;
55053;SDS011;40954;45.668;18.980;2023-08-06T13:21:31;1.08;;;1.05;;
55053;SDS011;40954;45.668;18.980;2023-08-06T13:23:58;3.00;;;2.27;;
55053;SDS011;40954;45.668;18.980;2023-08-06T13:26:24;4.35;;;2.33;;
55053;SDS011;40954;45.668;18.980;2023-08-06T13:28:50;7.55;;;5.10;;
55053;SDS011;40954;45.668;18.980;2023-08-06T13:31:16;3.90;;;2.92;;
55053;SDS011;40954;45.668;18.980;2023-08-06T13:33:42;3.42;;;1.30;;
55053;SDS011;40954;45.668;18.980;2023-08-06T13:36:08;2.30;;;0.95;;
55053;SDS011;40954;45.668;18.980;2023-08-06T13:38:34;3.05;;;1.90;;
55053;SDS011;40954;45.668;18.980;2023-08-06T13:41:01;1.08;;;0.77;;
55053;SDS011;40954;45.668;18.980;2023-08-06T13:43:27;1.75;;;1.58;;
55053;SDS011;40954;45.668;18.980;2023-08-06T13:45:53;1.77;;;1.48;;
55053;SDS011;40954;45.668;18.980;2023-08-06T13:48:19;1.20;;;1.05;;
55053;SDS011;40954;45.668;18.980;2023-08-06T13:50:46;2.25;;;1.30;;
55053;SDS011;40954;45.668;18.980;2023-08-06T13:53:13;1.80;;;1.05;;
55053;SDS011;40954;45.668;18.980;2023-08-06T13:55:39;3.10;;;1.13;;
55053;SDS011;40954;45.668;18.980;2023-08-06T13:58:05;3.03;;;1.08;;
55053;SDS011;40954;45.668;18.980;2023-08-06T14:00:31;1.60;;;0.73;;
55053;SDS011;40954;45.668;18.980;2023-08-06T14:02:57;1.95;;;0.73;;
55053;SDS011;40954;45.668;18.980;2023-08-06T14:05:23;9.88;;;1.10;;
55053;SDS011;40954;45.668;18.980;2023-08-06T14:07:49;0.70;;;0.70;;
55053;SDS011;40954;45.668;18.980;2023-08-06T14:10:15;1.55;;;0.90;;
55053;SDS011;40954;45.668;18.980;2023-08-06T14:12:41;0.82;;;0.70;;
55053;SDS011;40954;45.668;18.980;2023-08-06T14:15:07;0.70;;;0.70;;
55053;SDS011;40954;45.668;18.980;2023-08-06T14:17:33;2.50;;;0.85;;
55053;SDS011;40954;45.668;18.980;2023-08-06T14:19:59;2.22;;;0.85;;
55053;SDS011;40954;45.668;18.980;2023-08-06T14:22:26;1.80;;;0.70;;
55053;SDS011;40954;45.668;18.980;2023-08-06T14:24:52;1.10;;;1.00;;
55053;SDS011;40954;45.668;18.980;2023-08-06T14:27:18;1.13;;;1.00;;
55053;SDS011;40954;45.668;18.980;2023-08-06T14:29:44;1.70;;;0.80;;
55053;SDS011;40954;45.668;18.980;2023-08-06T14:32:10;5.38;;;1.25;;
55053;SDS011;40954;45.668;18.980;2023-08-06T14:34:36;1.88;;;1.08;;
55053;SDS011;40954;45.668;18.980;2023-08-06T14:37:02;1.40;;;1.30;;
55053;SDS011;40954;45.668;18.980;2023-08-06T14:39:29;1.00;;;1.00;;
55053;SDS011;40954;45.668;18.980;2023-08-06T14:41:55;6.43;;;0.88;;
55053;SDS011;40954;45.668;18.980;2023-08-06T14:44:23;1.23;;;0.88;;